Terminal Aerodrome Forecast
Issued by NWS Caribou, ME

Home | Current Version | Previous Version | Text Only | Print | Product List | Glossary On
Versions: 1 2 3 4 5 6 7 8 9 10 11 12 13 14 15 16 17 18
209
FTUS41 KCAR 181729
TAFCAR
TAF
KCAR 181729Z 1818/1918 15005KT P6SM VCSH BKN250
     FM190200 15006KT 2SM BR VCSH OVC025
     FM191200 16009KT P6SM VCSH OVC008=

USA.gov is the U.S. government's official web portal to all federal, state and local government web resources and services.